Time;durP1;ratioP1;P1;durP2;ratioP2;P2;SDS_P1;SDS_P2;PMS_P1;PMS_P2;Temp;Humidity;BMP_temperature;BMP_pressure;BME280_temperature;BME280_humidity;BME280_pressure;Samples;Min_cycle;Max_cycle;Signal;HPM_P1;HPM_P2
2021/05/27 00:00:47;;;;;;;12.70;6.23;;;;;;;;;;5051865;28;20230;-85
2021/05/27 00:03:13;;;;;;;13.53;7.40;;;;;;;;;;5050036;28;20315;-85
2021/05/27 00:05:40;;;;;;;11.23;6.63;;;;;;;;;;5050945;28;20230;-84
2021/05/27 00:08:07;;;;;;;16.10;7.07;;;;;;;;;;5048185;28;20660;-86
2021/05/27 00:10:34;;;;;;;14.13;7.33;;;;;;;;;;5049433;28;20676;-85
2021/05/27 00:13:02;;;;;;;13.30;7.37;;;;;;;;;;5053639;28;20234;-85
2021/05/27 00:15:31;;;;;;;14.47;7.30;;;;;;;;;;5050018;28;20672;-85
2021/05/27 00:17:58;;;;;;;13.67;7.43;;;;;;;;;;5054352;28;20212;-84
2021/05/27 00:20:25;;;;;;;13.33;7.83;;;;;;;;;;5050245;28;20215;-84
2021/05/27 00:22:52;;;;;;;14.70;7.67;;;;;;;;;;5052592;28;20281;-85
2021/05/27 00:25:18;;;;;;;11.17;7.37;;;;;;;;;;5050806;28;20536;-85
2021/05/27 00:27:46;;;;;;;16.00;8.43;;;;;;;;;;5049381;28;20211;-84
2021/05/27 00:30:15;;;;;;;13.13;7.60;;;;;;;;;;5050030;28;20207;-83
2021/05/27 00:32:42;;;;;;;15.10;7.30;;;;;;;;;;5045803;28;20266;-84
2021/05/27 00:35:12;;;;;;;14.70;8.00;;;;;;;;;;5046869;28;20298;-85
2021/05/27 00:37:39;;;;;;;13.40;7.60;;;;;;;;;;5048853;28;20571;-83
2021/05/27 00:40:07;;;;;;;12.43;8.10;;;;;;;;;;5045491;28;20606;-84
2021/05/27 00:42:34;;;;;;;15.30;8.13;;;;;;;;;;5050461;28;20237;-82
2021/05/27 00:45:01;;;;;;;14.87;8.13;;;;;;;;;;5049693;28;20226;-83
2021/05/27 00:47:29;;;;;;;14.17;8.30;;;;;;;;;;5052801;28;20207;-84
2021/05/27 00:49:56;;;;;;;15.87;8.63;;;;;;;;;;5066323;28;20220;-81
2021/05/27 00:52:23;;;;;;;15.70;8.57;;;;;;;;;;5068729;28;20211;-83
2021/05/27 00:54:50;;;;;;;15.27;8.90;;;;;;;;;;5076883;28;20202;-81
2021/05/27 00:57:23;;;;;;;14.73;8.93;;;;;;;;;;5049878;28;20223;-85
2021/05/27 00:59:49;;;;;;;12.23;8.33;;;;;;;;;;5048786;28;20254;-85
2021/05/27 01:02:16;;;;;;;17.07;8.83;;;;;;;;;;5049419;28;20235;-83
2021/05/27 01:04:44;;;;;;;15.87;8.10;;;;;;;;;;5049941;28;20208;-85
2021/05/27 01:07:13;;;;;;;13.60;8.90;;;;;;;;;;5052337;28;20326;-83
2021/05/27 01:09:41;;;;;;;12.87;8.30;;;;;;;;;;5049343;28;20243;-85
2021/05/27 01:12:08;;;;;;;14.07;8.30;;;;;;;;;;5048520;28;20234;-85
2021/05/27 01:17:16;;;;;;;16.53;7.97;;;;;;;;;;5025864;28;20613;-85
2021/05/27 01:19:44;;;;;;;14.93;8.40;;;;;;;;;;5050231;28;20199;-84
2021/05/27 01:22:11;;;;;;;14.27;7.80;;;;;;;;;;5046195;28;20262;-85
2021/05/27 01:24:38;;;;;;;15.57;8.40;;;;;;;;;;5046438;28;20242;-85
2021/05/27 01:27:05;;;;;;;14.07;8.53;;;;;;;;;;5046708;28;20222;-85
2021/05/27 01:29:31;;;;;;;14.17;8.97;;;;;;;;;;5051982;28;20238;-84
2021/05/27 01:31:58;;;;;;;18.73;9.17;;;;;;;;;;5052305;28;20246;-86
2021/05/27 01:34:25;;;;;;;14.03;9.03;;;;;;;;;;5047609;28;20234;-83
2021/05/27 01:36:52;;;;;;;13.43;8.73;;;;;;;;;;5048524;28;20742;-85
2021/05/27 01:39:19;;;;;;;18.27;9.00;;;;;;;;;;5044951;28;20203;-85
2021/05/27 01:41:46;;;;;;;20.60;9.33;;;;;;;;;;5047177;28;20254;-85
2021/05/27 01:44:13;;;;;;;16.47;8.97;;;;;;;;;;5047316;28;20726;-86
2021/05/27 01:46:40;;;;;;;16.30;8.27;;;;;;;;;;5049968;28;20246;-84
2021/05/27 01:49:07;;;;;;;13.37;8.53;;;;;;;;;;5050815;28;20214;-84
2021/05/27 01:51:33;;;;;;;14.37;8.13;;;;;;;;;;5046716;28;20257;-84
2021/05/27 01:54:00;;;;;;;18.60;8.37;;;;;;;;;;5042969;28;20262;-83
2021/05/27 01:56:31;;;;;;;13.23;8.23;;;;;;;;;;5049487;28;20246;-86
2021/05/27 01:59:02;;;;;;;15.63;8.20;;;;;;;;;;5050031;28;20199;-86
2021/05/27 02:01:30;;;;;;;16.30;8.53;;;;;;;;;;5046345;28;20261;-84
2021/05/27 02:03:57;;;;;;;15.80;8.57;;;;;;;;;;5048782;28;20235;-84
2021/05/27 02:06:24;;;;;;;16.80;7.70;;;;;;;;;;5046641;28;20311;-82
2021/05/27 02:09:10;;;;;;;13.97;8.63;;;;;;;;;;5047941;28;20230;-84
2021/05/27 02:11:38;;;;;;;17.60;9.07;;;;;;;;;;5047858;28;20331;-82
2021/05/27 02:14:06;;;;;;;15.43;8.87;;;;;;;;;;5049420;28;20589;-85
2021/05/27 02:16:32;;;;;;;17.90;8.93;;;;;;;;;;5048349;28;20306;-85
2021/05/27 02:18:59;;;;;;;13.50;8.87;;;;;;;;;;5049781;28;20203;-86
2021/05/27 02:21:26;;;;;;;19.30;9.37;;;;;;;;;;5052081;28;20229;-85
2021/05/27 02:23:54;;;;;;;19.67;8.43;;;;;;;;;;5048919;28;20208;-85
2021/05/27 02:26:21;;;;;;;20.30;9.73;;;;;;;;;;5049095;28;20206;-84
2021/05/27 02:28:48;;;;;;;20.97;9.87;;;;;;;;;;5048588;28;20672;-84
2021/05/27 02:31:16;;;;;;;18.57;9.20;;;;;;;;;;5050670;28;20243;-82
2021/05/27 02:33:43;;;;;;;16.33;9.00;;;;;;;;;;5073312;28;20262;-82
2021/05/27 02:36:10;;;;;;;17.83;9.50;;;;;;;;;;5069255;28;20188;-82
2021/05/27 02:38:36;;;;;;;15.10;9.40;;;;;;;;;;5071817;28;20203;-85
2021/05/27 02:41:03;;;;;;;16.37;8.43;;;;;;;;;;5047441;28;20599;-85
2021/05/27 02:43:30;;;;;;;14.93;8.67;;;;;;;;;;5048883;28;20234;-85
2021/05/27 02:45:58;;;;;;;17.67;9.40;;;;;;;;;;5049432;28;20215;-85
2021/05/27 02:48:25;;;;;;;15.20;9.10;;;;;;;;;;5051340;28;20210;-82
2021/05/27 02:50:51;;;;;;;15.77;9.23;;;;;;;;;;5053757;28;20234;-85
2021/05/27 02:53:18;;;;;;;19.47;9.63;;;;;;;;;;5047762;28;20290;-84
2021/05/27 02:55:45;;;;;;;17.67;11.30;;;;;;;;;;5046976;28;20568;-86
2021/05/27 02:58:12;;;;;;;20.00;9.70;;;;;;;;;;5047089;28;20207;-86
2021/05/27 03:00:41;;;;;;;18.33;9.87;;;;;;;;;;5046817;28;20243;-86
2021/05/27 03:03:08;;;;;;;15.30;9.17;;;;;;;;;;5051634;28;20231;-86
2021/05/27 03:05:35;;;;;;;18.43;10.20;;;;;;;;;;5050802;28;20203;-86
2021/05/27 03:08:02;;;;;;;16.30;9.10;;;;;;;;;;5056126;28;20206;-85
2021/05/27 03:10:28;;;;;;;18.93;9.80;;;;;;;;;;5052413;28;20210;-85
2021/05/27 03:12:55;;;;;;;16.47;9.77;;;;;;;;;;5052530;28;20280;-86
2021/05/27 03:15:22;;;;;;;19.50;9.80;;;;;;;;;;5051342;28;20234;-85
2021/05/27 03:17:49;;;;;;;18.33;10.07;;;;;;;;;;5052173;28;20273;-83
2021/05/27 03:20:16;;;;;;;15.73;9.73;;;;;;;;;;5052363;28;20210;-84
2021/05/27 03:22:43;;;;;;;18.07;10.07;;;;;;;;;;5047560;28;20219;-85
2021/05/27 03:25:10;;;;;;;18.57;9.97;;;;;;;;;;5049781;28;20215;-85
2021/05/27 03:27:37;;;;;;;19.73;10.27;;;;;;;;;;5047907;28;20246;-85
2021/05/27 03:30:04;;;;;;;20.57;10.37;;;;;;;;;;5053010;28;20462;-86
2021/05/27 03:32:31;;;;;;;21.87;9.00;;;;;;;;;;5047338;28;20663;-84
2021/05/27 03:34:58;;;;;;;17.87;9.53;;;;;;;;;;5049051;28;20212;-84
2021/05/27 03:37:25;;;;;;;18.50;8.57;;;;;;;;;;5046429;28;20233;-84
2021/05/27 03:40:12;;;;;;;18.47;9.60;;;;;;;;;;5053308;28;20698;-83
2021/05/27 03:42:39;;;;;;;15.20;9.33;;;;;;;;;;5045826;28;20276;-84
2021/05/27 03:45:07;;;;;;;14.13;9.23;;;;;;;;;;5048695;28;20253;-85
2021/05/27 03:47:33;;;;;;;15.60;9.37;;;;;;;;;;5048466;28;20635;-85
2021/05/27 03:50:00;;;;;;;15.37;9.17;;;;;;;;;;5046866;28;20578;-84
2021/05/27 03:52:28;;;;;;;15.33;9.17;;;;;;;;;;5050885;28;20231;-84
2021/05/27 03:54:55;;;;;;;16.43;8.73;;;;;;;;;;5048117;28;20301;-84
2021/05/27 03:57:21;;;;;;;13.27;8.80;;;;;;;;;;5047470;28;20238;-85
2021/05/27 04:02:33;;;;;;;13.43;8.67;;;;;;;;;;5045746;28;20230;-85
2021/05/27 04:07:45;;;;;;;15.60;8.50;;;;;;;;;;5048765;28;20198;-84
2021/05/27 04:10:12;;;;;;;14.17;7.73;;;;;;;;;;5048636;28;20285;-85
2021/05/27 04:12:46;;;;;;;16.17;8.33;;;;;;;;;;5046555;28;20302;-84
2021/05/27 04:15:20;;;;;;;12.97;7.87;;;;;;;;;;5058182;28;20207;-80
2021/05/27 04:17:47;;;;;;;11.27;7.27;;;;;;;;;;5073745;28;20195;-83
2021/05/27 04:20:14;;;;;;;13.00;7.10;;;;;;;;;;5070756;28;20198;-80
2021/05/27 04:22:41;;;;;;;14.67;8.03;;;;;;;;;;5056624;28;20235;-83
2021/05/27 04:25:10;;;;;;;11.23;7.90;;;;;;;;;;5046037;28;20689;-86
2021/05/27 04:27:37;;;;;;;11.10;7.33;;;;;;;;;;5040638;28;20261;-84
2021/05/27 04:30:13;;;;;;;11.23;7.10;;;;;;;;;;5046290;28;20242;-85
2021/05/27 04:32:54;;;;;;;11.67;7.23;;;;;;;;;;5060296;28;20225;-79
2021/05/27 04:35:21;;;;;;;14.13;7.63;;;;;;;;;;5064496;28;20323;-79
2021/05/27 04:37:47;;;;;;;13.13;8.10;;;;;;;;;;5053765;28;20264;-83
2021/05/27 04:40:16;;;;;;;11.87;8.40;;;;;;;;;;5045413;28;20212;-84
2021/05/27 04:42:42;;;;;;;12.23;8.50;;;;;;;;;;5046006;28;20222;-86
2021/05/27 04:45:10;;;;;;;17.50;8.93;;;;;;;;;;5047818;28;20648;-85
2021/05/27 04:47:36;;;;;;;12.80;8.60;;;;;;;;;;5050964;28;20675;-84
2021/05/27 04:50:04;;;;;;;16.97;9.43;;;;;;;;;;5045701;28;20262;-85
2021/05/27 04:52:31;;;;;;;20.00;9.80;;;;;;;;;;5049992;28;20231;-84
2021/05/27 04:55:00;;;;;;;13.23;8.73;;;;;;;;;;5047814;28;20257;-84
2021/05/27 04:57:28;;;;;;;20.03;9.13;;;;;;;;;;5047877;28;20236;-84
2021/05/27 05:03:01;;;;;;;15.23;8.80;;;;;;;;;;5046399;28;20223;-83
2021/05/27 05:05:30;;;;;;;16.00;8.87;;;;;;;;;;5045479;28;20234;-85
2021/05/27 05:07:57;;;;;;;13.77;8.80;;;;;;;;;;5050240;28;20214;-84
2021/05/27 05:10:25;;;;;;;13.73;9.17;;;;;;;;;;5049056;28;20225;-83
2021/05/27 05:12:53;;;;;;;17.70;10.03;;;;;;;;;;5054052;28;20254;-85
2021/05/27 05:15:21;;;;;;;14.10;9.33;;;;;;;;;;5048861;28;20204;-84
2021/05/27 05:17:49;;;;;;;14.03;8.87;;;;;;;;;;5050249;28;20211;-85
2021/05/27 05:20:18;;;;;;;13.53;7.90;;;;;;;;;;5049946;28;20826;-82
2021/05/27 05:22:45;;;;;;;14.30;7.70;;;;;;;;;;5052132;28;20254;-82
2021/05/27 05:25:18;;;;;;;11.83;7.80;;;;;;;;;;5049670;28;20246;-83
2021/05/27 05:27:45;;;;;;;11.13;7.27;;;;;;;;;;5053451;28;20214;-85
2021/05/27 05:30:16;;;;;;;12.23;6.20;;;;;;;;;;5045750;28;20208;-84
2021/05/27 05:32:44;;;;;;;11.63;6.83;;;;;;;;;;5047059;28;20299;-84
2021/05/27 05:35:11;;;;;;;11.63;6.40;;;;;;;;;;5050657;28;20590;-85
2021/05/27 05:37:39;;;;;;;9.17;6.10;;;;;;;;;;5054912;28;20275;-85
2021/05/27 05:40:08;;;;;;;10.47;6.00;;;;;;;;;;5052779;28;20199;-82
2021/05/27 05:42:35;;;;;;;8.40;5.63;;;;;;;;;;5051034;28;20242;-84
2021/05/27 05:45:02;;;;;;;11.23;6.37;;;;;;;;;;5049230;28;20218;-82
2021/05/27 05:47:29;;;;;;;8.07;6.10;;;;;;;;;;5047885;28;20222;-84
2021/05/27 05:49:56;;;;;;;9.90;7.10;;;;;;;;;;5049284;28;20287;-83
2021/05/27 05:52:23;;;;;;;15.90;8.43;;;;;;;;;;5051710;28;20231;-84
2021/05/27 05:54:50;;;;;;;12.70;8.07;;;;;;;;;;5045524;28;20203;-83
2021/05/27 05:57:17;;;;;;;14.77;9.07;;;;;;;;;;5043320;28;20196;-84
2021/05/27 05:59:43;;;;;;;13.40;8.70;;;;;;;;;;5055356;28;20211;-80
2021/05/27 06:02:10;;;;;;;16.17;9.27;;;;;;;;;;5070766;28;20210;-81
2021/05/27 06:04:38;;;;;;;17.60;9.90;;;;;;;;;;5068920;28;20190;-80
2021/05/27 06:07:05;;;;;;;19.17;10.50;;;;;;;;;;5070301;28;20823;-85
2021/05/27 06:09:34;;;;;;;23.83;10.20;;;;;;;;;;5057061;28;20663;-83
2021/05/27 06:12:00;;;;;;;18.53;10.23;;;;;;;;;;5050711;28;20235;-82
2021/05/27 06:14:27;;;;;;;20.77;10.17;;;;;;;;;;5052368;28;20208;-83
2021/05/27 06:16:59;;;;;;;23.97;11.40;;;;;;;;;;5047943;28;20207;-85
2021/05/27 06:19:25;;;;;;;18.63;10.70;;;;;;;;;;5051634;28;20206;-85
2021/05/27 06:21:53;;;;;;;23.97;11.70;;;;;;;;;;5047988;28;20265;-84
2021/05/27 06:24:20;;;;;;;21.60;11.17;;;;;;;;;;5050558;28;20286;-84
2021/05/27 06:26:46;;;;;;;20.90;11.30;;;;;;;;;;5048455;28;20286;-85
2021/05/27 06:29:13;;;;;;;16.47;10.17;;;;;;;;;;5049284;28;20204;-82
2021/05/27 06:31:45;;;;;;;20.10;10.97;;;;;;;;;;5049118;28;20244;-84
2021/05/27 06:34:12;;;;;;;20.40;10.93;;;;;;;;;;5047694;28;20207;-83
2021/05/27 06:36:38;;;;;;;19.17;10.33;;;;;;;;;;5047413;28;20664;-84
2021/05/27 06:39:07;;;;;;;16.73;10.00;;;;;;;;;;5047319;28;20211;-84
2021/05/27 06:41:33;;;;;;;13.07;8.77;;;;;;;;;;5048738;28;20263;-83
2021/05/27 06:44:00;;;;;;;14.40;9.40;;;;;;;;;;5047258;28;20199;-84
2021/05/27 06:46:27;;;;;;;18.93;9.50;;;;;;;;;;5047404;28;20207;-85
2021/05/27 06:48:55;;;;;;;13.90;8.70;;;;;;;;;;5047022;28;21055;-84
2021/05/27 06:51:21;;;;;;;12.33;7.90;;;;;;;;;;5046954;28;20227;-85
2021/05/27 06:53:48;;;;;;;13.53;7.93;;;;;;;;;;5044024;28;20200;-84
2021/05/27 06:56:16;;;;;;;15.37;7.97;;;;;;;;;;5047392;28;20206;-84
2021/05/27 06:58:42;;;;;;;13.70;8.13;;;;;;;;;;5049804;28;20242;-83
2021/05/27 07:01:09;;;;;;;11.90;8.20;;;;;;;;;;5045961;28;20215;-84
2021/05/27 07:03:36;;;;;;;16.30;10.53;;;;;;;;;;5046636;28;20279;-82
2021/05/27 07:06:05;;;;;;;13.73;9.37;;;;;;;;;;5049754;28;20342;-84
2021/05/27 07:08:32;;;;;;;18.13;9.30;;;;;;;;;;5049881;28;20623;-83
2021/05/27 07:10:59;;;;;;;9.47;6.67;;;;;;;;;;5047936;28;20239;-83
2021/05/27 07:13:27;;;;;;;11.20;7.60;;;;;;;;;;5047532;28;20222;-84
2021/05/27 07:15:53;;;;;;;12.43;7.80;;;;;;;;;;5047773;28;20207;-84
2021/05/27 07:18:20;;;;;;;30.83;18.07;;;;;;;;;;5054105;28;20200;-83
2021/05/27 07:20:47;;;;;;;10.93;6.77;;;;;;;;;;5048115;28;20222;-83
2021/05/27 07:23:14;;;;;;;9.60;6.53;;;;;;;;;;5045961;28;21587;-84
2021/05/27 07:25:41;;;;;;;10.27;6.33;;;;;;;;;;5043312;28;20223;-83
2021/05/27 07:28:08;;;;;;;10.00;6.27;;;;;;;;;;5044567;28;20207;-82
2021/05/27 07:30:38;;;;;;;8.63;6.20;;;;;;;;;;5044566;28;20227;-82
2021/05/27 07:33:05;;;;;;;8.70;6.43;;;;;;;;;;5045329;28;20218;-82
2021/05/27 07:35:32;;;;;;;11.50;6.10;;;;;;;;;;5044139;28;20199;-83
2021/05/27 07:37:59;;;;;;;9.83;6.13;;;;;;;;;;5042714;28;20238;-82
2021/05/27 07:40:27;;;;;;;11.00;6.47;;;;;;;;;;5043861;28;20314;-83
2021/05/27 07:42:53;;;;;;;11.03;6.63;;;;;;;;;;5048855;28;20247;-82
2021/05/27 07:45:20;;;;;;;9.73;6.73;;;;;;;;;;5062186;28;20186;-80
2021/05/27 07:47:48;;;;;;;13.27;6.97;;;;;;;;;;5072146;28;20198;-80
2021/05/27 07:50:20;;;;;;;12.80;7.27;;;;;;;;;;5071314;28;20188;-81
2021/05/27 07:52:47;;;;;;;12.33;7.27;;;;;;;;;;5059062;28;20234;-83
2021/05/27 07:55:15;;;;;;;12.23;6.50;;;;;;;;;;5046394;28;20969;-83
2021/05/27 07:58:17;;;;;;;10.07;6.57;;;;;;;;;;5049142;28;20203;-83
2021/05/27 08:04:24;;;;;;;10.67;6.50;;;;;;;;;;5045282;28;20714;-84
2021/05/27 08:06:51;;;;;;;12.13;6.83;;;;;;;;;;5050559;28;20211;-83
2021/05/27 08:09:18;;;;;;;12.67;8.00;;;;;;;;;;5046190;28;20211;-83
2021/05/27 08:11:48;;;;;;;25.17;14.50;;;;;;;;;;5043694;28;20232;-83
2021/05/27 08:14:15;;;;;;;36.27;22.40;;;;;;;;;;5043914;28;20210;-81
2021/05/27 08:16:42;;;;;;;14.70;8.50;;;;;;;;;;5038622;28;20215;-82
2021/05/27 08:19:09;;;;;;;10.47;7.07;;;;;;;;;;5045264;28;20381;-81
2021/05/27 08:24:39;;;;;;;9.50;6.33;;;;;;;;;;5003104;28;20254;-82
2021/05/27 08:27:06;;;;;;;8.37;5.87;;;;;;;;;;5043080;28;20290;-84
2021/05/27 08:29:34;;;;;;;8.07;5.40;;;;;;;;;;5046799;28;20218;-81
2021/05/27 08:32:01;;;;;;;8.80;5.50;;;;;;;;;;5042363;28;20606;-83
2021/05/27 08:34:27;;;;;;;6.77;5.23;;;;;;;;;;5044950;28;20206;-83
2021/05/27 08:36:54;;;;;;;14.93;6.30;;;;;;;;;;5047318;28;20632;-84
2021/05/27 08:39:21;;;;;;;8.63;5.60;;;;;;;;;;5048174;28;20203;-80
2021/05/27 08:41:50;;;;;;;10.40;6.03;;;;;;;;;;5042933;28;20220;-83
2021/05/27 08:44:16;;;;;;;9.97;6.93;;;;;;;;;;5044334;28;20203;-84
2021/05/27 08:46:43;;;;;;;10.83;6.83;;;;;;;;;;5044202;28;20659;-83
2021/05/27 08:49:12;;;;;;;9.90;5.93;;;;;;;;;;5046997;28;20293;-84
2021/05/27 08:51:39;;;;;;;9.73;6.40;;;;;;;;;;5042743;28;20227;-84
2021/05/27 08:54:06;;;;;;;10.07;5.87;;;;;;;;;;5046904;28;20348;-83
2021/05/27 08:56:33;;;;;;;9.10;5.73;;;;;;;;;;5040945;28;20290;-84
2021/05/27 08:59:01;;;;;;;10.13;5.87;;;;;;;;;;5045390;28;20199;-84
2021/05/27 09:01:28;;;;;;;9.73;5.90;;;;;;;;;;5049234;28;20276;-84
2021/05/27 09:03:54;;;;;;;11.77;6.17;;;;;;;;;;5045539;28;20202;-83
2021/05/27 09:06:21;;;;;;;10.67;5.73;;;;;;;;;;5046426;28;20665;-84
2021/05/27 09:08:48;;;;;;;8.10;5.33;;;;;;;;;;5046503;28;20416;-83
2021/05/27 09:11:15;;;;;;;9.63;6.20;;;;;;;;;;5046987;28;20199;-83
2021/05/27 09:13:51;;;;;;;9.20;5.80;;;;;;;;;;5044086;28;21486;-82
2021/05/27 09:16:19;;;;;;;11.93;6.33;;;;;;;;;;5046297;28;20198;-81
2021/05/27 09:18:46;;;;;;;9.80;6.10;;;;;;;;;;5047710;28;20738;-81
2021/05/27 09:21:13;;;;;;;14.57;7.37;;;;;;;;;;5044455;28;20873;-80
2021/05/27 09:23:46;;;;;;;10.37;7.00;;;;;;;;;;5041692;28;20237;-83
2021/05/27 09:26:14;;;;;;;11.53;7.40;;;;;;;;;;5048392;28;20293;-82
2021/05/27 09:28:41;;;;;;;11.27;7.10;;;;;;;;;;5051923;28;20205;-81
2021/05/27 09:31:09;;;;;;;11.83;6.50;;;;;;;;;;5071445;28;20183;-81
2021/05/27 09:33:40;;;;;;;11.00;7.00;;;;;;;;;;5076968;28;20202;-82
2021/05/27 09:36:07;;;;;;;8.93;5.90;;;;;;;;;;5065183;28;20206;-85
2021/05/27 09:38:35;;;;;;;8.20;6.00;;;;;;;;;;5047560;28;20214;-82
2021/05/27 09:41:14;;;;;;;8.20;5.53;;;;;;;;;;5050843;28;20211;-83
2021/05/27 09:43:41;;;;;;;8.87;4.90;;;;;;;;;;5048147;28;20195;-84
2021/05/27 09:46:08;;;;;;;7.03;4.80;;;;;;;;;;5049022;28;20293;-83
2021/05/27 09:48:35;;;;;;;8.13;5.30;;;;;;;;;;5047412;28;20202;-82
2021/05/27 09:51:03;;;;;;;8.23;5.03;;;;;;;;;;5047817;28;20232;-84
2021/05/27 09:53:32;;;;;;;6.43;3.77;;;;;;;;;;5045805;28;20678;-83
2021/05/27 09:55:59;;;;;;;6.53;4.50;;;;;;;;;;5046922;28;20306;-85
2021/05/27 09:58:26;;;;;;;6.40;4.23;;;;;;;;;;5048590;28;20199;-83
2021/05/27 10:00:54;;;;;;;7.83;3.87;;;;;;;;;;5045694;28;20313;-82
2021/05/27 10:03:36;;;;;;;6.30;3.67;;;;;;;;;;5048954;28;20222;-84
2021/05/27 10:06:05;;;;;;;8.13;4.03;;;;;;;;;;5050024;28;20771;-84
2021/05/27 10:08:48;;;;;;;6.37;4.13;;;;;;;;;;5045567;28;20199;-84
2021/05/27 10:11:14;;;;;;;7.23;3.90;;;;;;;;;;5047278;28;20191;-84
2021/05/27 10:13:42;;;;;;;6.10;3.90;;;;;;;;;;5048713;28;20215;-81
2021/05/27 10:16:11;;;;;;;5.07;3.70;;;;;;;;;;5048621;28;20632;-83
2021/05/27 10:18:37;;;;;;;6.03;3.80;;;;;;;;;;5048181;28;20652;-85
2021/05/27 10:21:05;;;;;;;6.20;4.27;;;;;;;;;;5051403;28;20206;-85
2021/05/27 10:23:32;;;;;;;6.17;3.80;;;;;;;;;;5053551;28;20289;-83
2021/05/27 10:25:59;;;;;;;8.63;3.50;;;;;;;;;;5049864;28;20206;-83
2021/05/27 10:28:26;;;;;;;5.27;3.60;;;;;;;;;;5048845;28;20202;-84
2021/05/27 10:30:53;;;;;;;8.83;5.30;;;;;;;;;;5054993;28;20204;-83
2021/05/27 10:33:21;;;;;;;5.57;3.40;;;;;;;;;;5055598;28;20683;-84
2021/05/27 10:35:50;;;;;;;4.27;3.47;;;;;;;;;;5050693;28;20649;-84
2021/05/27 10:38:19;;;;;;;4.20;2.83;;;;;;;;;;5051566;28;20313;-84
2021/05/27 10:40:50;;;;;;;4.60;3.57;;;;;;;;;;5049944;28;20300;-84
2021/05/27 10:43:17;;;;;;;5.20;2.73;;;;;;;;;;5048520;28;20285;-83
2021/05/27 10:46:18;;;;;;;6.00;3.17;;;;;;;;;;5047223;28;20600;-83
2021/05/27 10:48:46;;;;;;;4.77;3.13;;;;;;;;;;4986865;28;20298;-84
2021/05/27 10:51:21;;;;;;;3.30;2.80;;;;;;;;;;4980303;28;20220;-84
2021/05/27 10:53:50;;;;;;;5.17;3.43;;;;;;;;;;5011251;28;20211;-84
2021/05/27 10:56:18;;;;;;;4.40;3.47;;;;;;;;;;5052170;28;20584;-82
2021/05/27 10:59:12;;;;;;;6.73;3.77;;;;;;;;;;5051550;28;20852;-80
2021/05/27 11:01:55;;;;;;;10.63;5.43;;;;;;;;;;5049753;28;20257;-81
2021/05/27 11:04:23;;;;;;;7.60;4.20;;;;;;;;;;5051813;28;20218;-84
2021/05/27 11:06:50;;;;;;;8.20;4.97;;;;;;;;;;5053143;28;20211;-83
2021/05/27 11:09:35;;;;;;;6.73;4.50;;;;;;;;;;5048334;28;20234;-83
2021/05/27 11:12:12;;;;;;;6.47;4.77;;;;;;;;;;5050428;28;20231;-80
2021/05/27 11:14:40;;;;;;;6.43;4.83;;;;;;;;;;5067660;28;20183;-80
2021/05/27 11:17:21;;;;;;;5.07;3.90;;;;;;;;;;5070449;28;20188;-83
2021/05/27 11:19:51;;;;;;;7.93;4.10;;;;;;;;;;5061081;28;20198;-83
2021/05/27 11:22:40;;;;;;;6.10;4.10;;;;;;;;;;5044438;28;20268;-84
2021/05/27 11:25:25;;;;;;;7.67;3.83;;;;;;;;;;5052068;28;20213;-82
2021/05/27 11:27:54;;;;;;;6.33;4.23;;;;;;;;;;5046682;28;20199;-84
2021/05/27 11:30:21;;;;;;;6.10;3.53;;;;;;;;;;5053843;28;20233;-84
2021/05/27 11:32:49;;;;;;;5.37;3.83;;;;;;;;;;5055419;28;20264;-85
2021/05/27 11:35:17;;;;;;;5.77;3.53;;;;;;;;;;5050240;28;20211;-85
2021/05/27 11:37:44;;;;;;;4.63;3.27;;;;;;;;;;5054462;28;20230;-85
2021/05/27 11:40:12;;;;;;;4.73;3.27;;;;;;;;;;5049481;28;20302;-85
2021/05/27 11:42:39;;;;;;;4.93;3.50;;;;;;;;;;5050582;28;20222;-85
2021/05/27 11:45:08;;;;;;;4.70;3.17;;;;;;;;;;5045796;28;20230;-83
2021/05/27 11:47:35;;;;;;;3.73;2.80;;;;;;;;;;5049157;28;20203;-84
2021/05/27 11:50:02;;;;;;;4.20;2.90;;;;;;;;;;5052748;28;20204;-84
2021/05/27 11:52:29;;;;;;;4.27;3.13;;;;;;;;;;5049422;28;20234;-83
2021/05/27 11:54:56;;;;;;;6.97;3.10;;;;;;;;;;5049467;28;20219;-83
2021/05/27 11:57:23;;;;;;;3.47;2.70;;;;;;;;;;5049529;28;20214;-85
2021/05/27 12:00:00;;;;;;;3.33;2.23;;;;;;;;;;5047956;28;20294;-82
2021/05/27 12:02:41;;;;;;;7.43;5.30;;;;;;;;;;5049301;28;20275;-82
2021/05/27 12:05:25;;;;;;;3.83;2.60;;;;;;;;;;5048271;28;20218;-84
2021/05/27 12:07:59;;;;;;;5.47;2.90;;;;;;;;;;5050032;28;20202;-82
2021/05/27 12:10:26;;;;;;;5.20;3.37;;;;;;;;;;5049087;28;20207;-85
2021/05/27 12:12:53;;;;;;;4.07;2.63;;;;;;;;;;5053282;28;20227;-82
2021/05/27 12:15:21;;;;;;;5.33;3.77;;;;;;;;;;5047929;28;20611;-84
2021/05/27 12:17:48;;;;;;;5.40;2.70;;;;;;;;;;5053496;28;20210;-86
2021/05/27 12:20:17;;;;;;;4.70;3.10;;;;;;;;;;5051478;28;20211;-86
2021/05/27 12:22:52;;;;;;;5.97;2.90;;;;;;;;;;5045888;28;20223;-85
2021/05/27 12:25:21;;;;;;;7.03;5.23;;;;;;;;;;5050211;28;20609;-83
2021/05/27 12:27:51;;;;;;;7.40;4.20;;;;;;;;;;5048888;28;20222;-84
2021/05/27 12:30:19;;;;;;;6.37;3.17;;;;;;;;;;5044994;28;20268;-86
2021/05/27 12:32:50;;;;;;;7.80;3.20;;;;;;;;;;5048652;28;20230;-86
2021/05/27 12:35:21;;;;;;;6.03;3.13;;;;;;;;;;5049037;28;20711;-84
2021/05/27 12:37:48;;;;;;;5.43;3.50;;;;;;;;;;5039360;28;20286;-83
2021/05/27 12:40:23;;;;;;;6.73;3.27;;;;;;;;;;5044280;28;20293;-83
2021/05/27 12:42:50;;;;;;;6.37;3.13;;;;;;;;;;5044852;28;20226;-85
2021/05/27 12:45:27;;;;;;;4.83;3.20;;;;;;;;;;5045180;28;20557;-83
2021/05/27 12:48:03;;;;;;;4.73;3.40;;;;;;;;;;5044501;28;20294;-83
2021/05/27 12:50:30;;;;;;;4.10;2.67;;;;;;;;;;5044809;28;20248;-83
2021/05/27 12:52:57;;;;;;;4.60;2.97;;;;;;;;;;5046187;28;20271;-84
2021/05/27 12:55:29;;;;;;;7.30;2.60;;;;;;;;;;5058692;28;20206;-81
2021/05/27 12:57:58;;;;;;;4.60;3.00;;;;;;;;;;5067672;28;20210;-82
2021/05/27 13:00:25;;;;;;;4.90;3.10;;;;;;;;;;5061397;28;20194;-80
2021/05/27 13:03:02;;;;;;;5.17;3.10;;;;;;;;;;5062732;28;20239;-84
2021/05/27 13:05:29;;;;;;;5.30;2.90;;;;;;;;;;5047096;28;20199;-84
2021/05/27 13:07:56;;;;;;;6.07;3.27;;;;;;;;;;5050889;28;20294;-85
2021/05/27 13:10:30;;;;;;;4.90;3.23;;;;;;;;;;5047965;28;20281;-85
2021/05/27 13:12:57;;;;;;;5.10;2.77;;;;;;;;;;5048199;28;20265;-81
2021/05/27 13:15:24;;;;;;;4.20;2.60;;;;;;;;;;5049090;28;20667;-83
2021/05/27 13:18:11;;;;;;;6.23;4.10;;;;;;;;;;5045821;28;20224;-82
2021/05/27 13:23:30;;;;;;;6.03;3.03;;;;;;;;;;5047576;22;20212;-75
2021/05/27 13:26:11;;;;;;;5.57;3.23;;;;;;;;;;5031502;28;20319;-74
2021/05/27 13:28:38;;;;;;;5.53;3.27;;;;;;;;;;5015230;28;20199;-74
2021/05/27 13:31:05;;;;;;;5.60;3.80;;;;;;;;;;5019834;28;20239;-75
2021/05/27 13:33:32;;;;;;;5.17;3.10;;;;;;;;;;5020789;28;20232;-74
2021/05/27 13:36:00;;;;;;;7.83;3.57;;;;;;;;;;5016950;28;20228;-75
2021/05/27 13:38:29;;;;;;;4.43;3.30;;;;;;;;;;5018411;28;20727;-75
2021/05/27 13:40:57;;;;;;;6.13;3.60;;;;;;;;;;5018314;28;20733;-75
2021/05/27 13:43:29;;;;;;;5.43;4.17;;;;;;;;;;5018408;28;20290;-75
2021/05/27 13:45:56;;;;;;;8.63;3.90;;;;;;;;;;5016090;28;20242;-75
2021/05/27 13:48:22;;;;;;;9.60;4.07;;;;;;;;;;5013798;28;20212;-75
2021/05/27 13:50:50;;;;;;;5.67;3.57;;;;;;;;;;5014977;28;20243;-74
2021/05/27 13:53:17;;;;;;;5.00;3.40;;;;;;;;;;5015031;28;20235;-75
2021/05/27 13:55:52;;;;;;;8.27;4.40;;;;;;;;;;5016412;28;20259;-75
2021/05/27 13:58:20;;;;;;;6.83;3.87;;;;;;;;;;5018353;28;20203;-76
2021/05/27 14:00:47;;;;;;;10.20;4.20;;;;;;;;;;5017626;28;20215;-76
2021/05/27 14:03:14;;;;;;;8.33;4.07;;;;;;;;;;5018968;28;20235;-75
2021/05/27 14:05:41;;;;;;;7.20;3.83;;;;;;;;;;5020372;28;20619;-76
2021/05/27 14:08:08;;;;;;;6.13;4.30;;;;;;;;;;5015960;28;20299;-75
2021/05/27 14:10:35;;;;;;;8.93;4.37;;;;;;;;;;5018623;28;20230;-75
2021/05/27 14:13:06;;;;;;;9.03;3.60;;;;;;;;;;5042309;22;20279;-83
2021/05/27 14:15:33;;;;;;;9.17;4.00;;;;;;;;;;5031626;28;20215;-83
2021/05/27 14:18:01;;;;;;;9.67;4.10;;;;;;;;;;5036677;28;20215;-84
2021/05/27 14:20:28;;;;;;;10.10;4.57;;;;;;;;;;5035798;28;20372;-84
2021/05/27 14:22:55;;;;;;;7.60;4.63;;;;;;;;;;5031679;28;20248;-83
2021/05/27 14:25:22;;;;;;;8.80;4.40;;;;;;;;;;5033378;28;20215;-83
2021/05/27 14:27:48;;;;;;;8.83;4.70;;;;;;;;;;5027750;28;20220;-83
2021/05/27 14:30:16;;;;;;;6.47;4.40;;;;;;;;;;5029278;28;20207;-83
2021/05/27 14:32:45;;;;;;;8.03;4.63;;;;;;;;;;5028538;28;20223;-82
2021/05/27 14:35:14;;;;;;;8.13;4.33;;;;;;;;;;5033627;28;20250;-83
2021/05/27 14:37:40;;;;;;;7.30;3.93;;;;;;;;;;5031045;28;20628;-81
2021/05/27 14:40:08;;;;;;;6.40;4.20;;;;;;;;;;5048173;28;20212;-81
2021/05/27 14:42:36;;;;;;;9.27;4.80;;;;;;;;;;5056181;28;20228;-84
2021/05/27 14:45:03;;;;;;;6.67;4.37;;;;;;;;;;5054934;28;20295;-85
2021/05/27 14:47:29;;;;;;;7.73;4.23;;;;;;;;;;5041899;28;20219;-85
2021/05/27 14:49:56;;;;;;;11.80;4.50;;;;;;;;;;5038184;28;20210;-81
2021/05/27 14:52:24;;;;;;;6.83;4.10;;;;;;;;;;5034241;28;20238;-84
2021/05/27 14:54:51;;;;;;;9.10;4.50;;;;;;;;;;5040322;28;20219;-84
2021/05/27 14:57:18;;;;;;;12.77;4.80;;;;;;;;;;5034247;28;20706;-84
2021/05/27 14:59:44;;;;;;;8.97;4.33;;;;;;;;;;5036898;28;20599;-83
2021/05/27 15:02:11;;;;;;;7.50;4.47;;;;;;;;;;5033350;28;20227;-84